< < Back
Terminal Aerodrome Forecast


Current Version              Previous Versions:   1  2  3  4  5  6  7  8  9  

Terminal Aerodrome Forecast

059
FTAK31 PAJN 242300
TAFAHN
TAF
PAHN 242333Z 2500/2524 14010KT P6SM BKN050
     FM250200 13006KT P6SM SCT050 SCT100
     FM251000 VRB05KT P6SM BKN030
     FM251900 12005KT P6SM SCT040 SCT100
      AMD LTD TO CLD VIS AND WIND=

Latest METAR

006
SAUS70 KWBC 250900 RRA
MTRAHN
METAR KAHN 250851Z AUTO 10003KT 10SM CLR 16/14 A3028 RMK AO2 SLP248
T01560144 55002


USA.gov is the U.S. government's official web portal to all federal, state and local government web resources and services.